createdAt,value
2022-11-03T00:00:55.867Z,18.60
2022-11-03T00:01:56.053Z,17.50
2022-11-03T00:02:56.034Z,14.00
2022-11-03T00:03:55.837Z,16.90
2022-11-03T00:04:55.813Z,16.20
2022-11-03T00:05:55.803Z,18.10
2022-11-03T00:06:55.817Z,15.80
2022-11-03T00:07:55.769Z,15.10
2022-11-03T00:08:55.762Z,15.70
2022-11-03T00:09:55.744Z,15.70
2022-11-03T00:10:55.742Z,14.50
2022-11-03T00:11:55.743Z,16.30
2022-11-03T00:12:55.698Z,17.90
2022-11-03T00:13:55.711Z,20.20
2022-11-03T00:14:55.671Z,17.70
2022-11-03T00:15:55.665Z,18.50
2022-11-03T00:16:55.673Z,17.10
2022-11-03T00:17:55.636Z,18.10
2022-11-03T00:18:55.625Z,18.70
2022-11-03T00:19:55.639Z,17.50
2022-11-03T00:20:55.594Z,18.00
2022-11-03T00:21:55.594Z,19.00
2022-11-03T00:22:55.595Z,17.60
2022-11-03T00:23:55.563Z,16.30
2022-11-03T00:24:55.564Z,16.00
2022-11-03T00:25:55.545Z,16.80
2022-11-03T00:26:55.519Z,18.40
2022-11-03T00:27:55.541Z,16.70
2022-11-03T00:28:55.491Z,18.30
2022-11-03T00:29:55.480Z,17.80
2022-11-03T00:30:55.463Z,15.80
2022-11-03T00:31:55.469Z,14.00
2022-11-03T00:32:55.457Z,14.20
2022-11-03T00:33:55.413Z,11.90
2022-11-03T00:34:55.401Z,11.90
2022-11-03T00:35:55.398Z,13.90
2022-11-03T00:36:55.410Z,14.30
2022-11-03T00:37:55.370Z,16.50
2022-11-03T00:38:55.370Z,12.60
2022-11-03T00:39:55.331Z,18.40
2022-11-03T00:40:55.332Z,14.20
2022-11-03T00:41:55.352Z,13.30
2022-11-03T00:42:55.309Z,16.70
2022-11-03T00:43:55.293Z,14.00
2022-11-03T00:44:55.277Z,16.00
2022-11-03T00:45:55.258Z,13.90
2022-11-03T00:46:55.276Z,14.30
2022-11-03T00:47:55.234Z,16.40
2022-11-03T00:48:55.239Z,18.20
2022-11-03T00:49:55.232Z,17.10
2022-11-03T00:50:55.187Z,18.20
2022-11-03T00:51:55.206Z,16.10
2022-11-03T00:52:55.163Z,17.30
2022-11-03T00:53:55.153Z,18.50
2022-11-03T00:54:55.468Z,15.90
2022-11-03T00:55:55.127Z,17.90
2022-11-03T00:56:55.107Z,19.80
2022-11-03T00:57:55.106Z,17.20
2022-11-03T00:58:55.080Z,16.70
2022-11-03T00:59:55.097Z,20.90
2022-11-03T01:00:55.094Z,16.00
2022-11-03T01:01:55.302Z,17.40
2022-11-03T01:02:55.032Z,18.80
2022-11-03T01:03:55.059Z,21.90
2022-11-03T01:04:55.007Z,17.70
2022-11-03T01:05:54.990Z,17.20
2022-11-03T01:06:54.987Z,15.90
2022-11-03T01:07:55.109Z,16.50
2022-11-03T01:08:54.950Z,17.50
2022-11-03T01:09:54.961Z,16.00
2022-11-03T01:10:54.918Z,20.40
2022-11-03T01:11:54.916Z,14.40
2022-11-03T01:12:54.893Z,14.00
2022-11-03T01:13:54.920Z,14.10
2022-11-03T01:14:54.871Z,15.30
2022-11-03T01:15:54.865Z,14.00
2022-11-03T01:16:54.877Z,13.60
2022-11-03T01:17:54.828Z,13.30
2022-11-03T01:18:54.817Z,13.80
2022-11-03T01:19:54.807Z,13.00
2022-11-03T01:20:54.801Z,13.60
2022-11-03T01:21:54.817Z,14.70
2022-11-03T01:22:54.764Z,15.40
2022-11-03T01:23:54.765Z,14.70
2022-11-03T01:24:54.747Z,14.40
2022-11-03T01:25:54.731Z,13.30
2022-11-03T01:26:54.736Z,11.50
2022-11-03T01:27:54.799Z,13.00
2022-11-03T01:28:54.686Z,14.80
2022-11-03T01:29:54.668Z,12.60
2022-11-03T01:30:54.661Z,10.60
2022-11-03T01:31:54.697Z,11.00
2022-11-03T01:32:54.655Z,11.30
2022-11-03T01:33:54.620Z,12.20
2022-11-03T01:34:54.642Z,13.40
2022-11-03T01:35:54.639Z,10.90
2022-11-03T01:36:54.593Z,13.30
2022-11-03T01:37:54.626Z,12.70
2022-11-03T01:38:54.575Z,11.30
2022-11-03T01:39:54.599Z,9.40
2022-11-03T01:40:54.520Z,10.80
2022-11-03T01:41:54.505Z,13.70
2022-11-03T01:42:54.535Z,11.40
2022-11-03T01:43:54.498Z,8.80
2022-11-03T01:44:54.474Z,10.90
2022-11-03T01:45:54.464Z,9.50
2022-11-03T01:46:54.473Z,11.90
2022-11-03T01:47:54.517Z,11.50
2022-11-03T01:48:54.422Z,11.00
2022-11-03T01:49:54.438Z,12.10
2022-11-03T01:50:54.382Z,12.30
2022-11-03T01:51:54.389Z,10.90
2022-11-03T01:52:54.396Z,12.10
2022-11-03T01:53:54.356Z,10.40
2022-11-03T01:54:54.333Z,10.40
2022-11-03T01:55:54.326Z,12.00
2022-11-03T01:56:54.355Z,10.80
2022-11-03T01:57:54.326Z,12.50
2022-11-03T01:58:54.300Z,10.40
2022-11-03T01:59:54.272Z,12.80
2022-11-03T02:00:54.361Z,10.70
2022-11-03T02:01:54.352Z,8.90
2022-11-03T02:02:54.254Z,12.00
2022-11-03T02:03:54.223Z,10.80
2022-11-03T02:04:54.209Z,10.10
2022-11-03T02:05:54.178Z,8.80
2022-11-03T02:06:54.179Z,10.40
2022-11-03T02:07:54.252Z,10.10
2022-11-03T02:08:54.182Z,9.20
2022-11-03T02:09:54.138Z,8.70
2022-11-03T02:10:54.117Z,9.70
2022-11-03T02:11:54.109Z,8.10
2022-11-03T02:12:54.097Z,10.70
2022-11-03T02:13:54.099Z,12.20
2022-11-03T02:14:54.065Z,11.00
2022-11-03T02:15:54.052Z,11.70
2022-11-03T02:16:54.040Z,12.20
2022-11-03T02:17:54.034Z,11.00
2022-11-03T02:18:54.054Z,8.60
2022-11-03T02:19:54.005Z,9.90
2022-11-03T02:20:53.995Z,12.30
2022-11-03T02:21:53.971Z,9.10
2022-11-03T02:22:53.964Z,12.40
2022-11-03T02:23:53.948Z,10.30
2022-11-03T02:24:54.440Z,10.30
2022-11-03T02:25:53.961Z,9.50
2022-11-03T02:26:53.908Z,11.70
2022-11-03T02:27:53.919Z,9.80
2022-11-03T02:29:53.889Z,8.70
2022-11-03T02:30:53.849Z,10.50
2022-11-03T02:31:53.842Z,12.80
2022-11-03T02:32:53.823Z,11.70
2022-11-03T02:33:53.808Z,9.10
2022-11-03T02:34:53.794Z,10.30
2022-11-03T02:35:53.822Z,8.00
2022-11-03T02:36:53.799Z,10.00
2022-11-03T02:37:53.763Z,10.20
2022-11-03T02:38:53.767Z,10.90
2022-11-03T02:39:53.731Z,10.30
2022-11-03T02:40:53.717Z,9.50
2022-11-03T02:41:53.703Z,10.40
2022-11-03T02:42:53.681Z,8.80
2022-11-03T02:43:53.705Z,9.20
2022-11-03T02:44:53.664Z,9.70
2022-11-03T02:45:53.649Z,8.70
2022-11-03T02:46:53.634Z,11.60
2022-11-03T02:47:53.649Z,11.90
2022-11-03T02:48:53.615Z,9.90
2022-11-03T02:49:53.616Z,11.30
2022-11-03T02:50:53.620Z,10.20
2022-11-03T02:51:53.610Z,11.30
2022-11-03T02:52:53.553Z,10.80
2022-11-03T02:53:53.572Z,10.00
2022-11-03T02:54:53.525Z,10.80
2022-11-03T02:55:53.508Z,12.00
2022-11-03T02:56:53.492Z,11.30
2022-11-03T02:57:53.521Z,10.50
2022-11-03T02:58:53.502Z,12.40
2022-11-03T02:59:53.472Z,11.00
2022-11-03T03:00:53.547Z,9.90
2022-11-03T03:01:53.629Z,10.80
2022-11-03T03:02:53.419Z,8.10
2022-11-03T03:03:53.434Z,11.60
2022-11-03T03:04:53.394Z,13.10
2022-11-03T03:05:53.377Z,10.80
2022-11-03T03:06:53.360Z,12.30
2022-11-03T03:07:53.365Z,10.90
2022-11-03T03:08:53.355Z,14.50
2022-11-03T03:09:53.329Z,14.10
2022-11-03T03:10:53.321Z,10.20
2022-11-03T03:11:53.307Z,14.80
2022-11-03T03:12:53.329Z,9.40
2022-11-03T03:13:53.264Z,9.10
2022-11-03T03:14:53.255Z,9.40
2022-11-03T03:15:53.276Z,10.30
2022-11-03T03:16:53.269Z,10.30
2022-11-03T03:17:53.220Z,11.10
2022-11-03T03:18:53.227Z,12.00
2022-11-03T03:19:53.202Z,14.40
2022-11-03T03:20:53.179Z,11.90
2022-11-03T03:21:53.164Z,13.40
2022-11-03T03:22:53.176Z,11.80
2022-11-03T03:23:53.129Z,11.80
2022-11-03T03:24:53.124Z,9.20
2022-11-03T03:25:53.105Z,9.60
2022-11-03T03:26:53.131Z,10.30
2022-11-03T03:27:53.079Z,12.00
2022-11-03T03:28:53.068Z,11.80
2022-11-03T03:29:53.075Z,11.00
2022-11-03T03:30:53.036Z,14.10
2022-11-03T03:31:53.023Z,11.90
2022-11-03T03:32:53.038Z,9.90
2022-11-03T03:33:59.732Z,11.90
2022-11-03T03:34:53.001Z,11.90
2022-11-03T03:35:52.993Z,11.20
2022-11-03T03:36:53.038Z,11.80
2022-11-03T03:37:52.941Z,12.10
2022-11-03T03:38:52.927Z,11.40
2022-11-03T03:39:52.916Z,13.00
2022-11-03T03:40:52.925Z,10.90
2022-11-03T03:41:52.894Z,10.90
2022-11-03T03:42:52.891Z,9.80
2022-11-03T03:43:52.897Z,13.20
2022-11-03T03:44:52.853Z,10.30
2022-11-03T03:45:52.865Z,9.80
2022-11-03T03:46:52.856Z,12.20
2022-11-03T03:48:06.208Z,10.70
2022-11-03T03:48:52.808Z,12.60
2022-11-03T03:49:52.782Z,13.00
2022-11-03T03:50:52.768Z,12.80
2022-11-03T03:51:52.790Z,12.40
2022-11-03T03:52:52.745Z,12.80
2022-11-03T03:53:52.735Z,12.10
2022-11-03T03:54:52.719Z,10.90
2022-11-03T03:55:52.728Z,15.20
2022-11-03T03:56:52.695Z,11.70
2022-11-03T03:57:55.358Z,13.90
2022-11-03T03:58:52.674Z,9.90
2022-11-03T03:59:52.658Z,9.60
2022-11-03T04:00:52.759Z,12.30
2022-11-03T04:01:52.861Z,13.40
2022-11-03T04:02:52.632Z,10.50
2022-11-03T04:03:52.623Z,11.60
2022-11-03T04:04:52.580Z,14.90
2022-11-03T04:05:52.591Z,11.10
2022-11-03T04:06:52.562Z,13.40
2022-11-03T04:07:52.538Z,15.60
2022-11-03T04:08:52.578Z,13.90
2022-11-03T04:09:52.551Z,10.50
2022-11-03T04:10:52.523Z,13.30
2022-11-03T04:11:52.488Z,11.60
2022-11-03T04:12:52.496Z,13.70
2022-11-03T04:13:52.465Z,10.20
2022-11-03T04:14:52.481Z,11.70
2022-11-03T04:15:52.439Z,14.80
2022-11-03T04:16:52.415Z,13.80
2022-11-03T04:17:52.424Z,11.90
2022-11-03T04:18:52.427Z,12.70
2022-11-03T04:19:52.388Z,12.30
2022-11-03T04:20:52.374Z,13.50
2022-11-03T04:21:52.381Z,13.60
2022-11-03T04:22:52.351Z,14.20
2022-11-03T04:23:52.351Z,13.00
2022-11-03T04:24:52.306Z,15.50
2022-11-03T04:25:52.307Z,11.80
2022-11-03T04:26:52.321Z,10.00
2022-11-03T04:27:52.275Z,10.40
2022-11-03T04:28:52.294Z,10.80
2022-11-03T04:29:52.248Z,14.10
2022-11-03T04:30:54.733Z,10.50
2022-11-03T04:31:52.256Z,10.70
2022-11-03T04:32:52.217Z,12.90
2022-11-03T04:33:52.199Z,14.00
2022-11-03T04:34:52.188Z,12.10
2022-11-03T04:35:52.172Z,12.90
2022-11-03T04:36:52.186Z,11.80
2022-11-03T04:37:52.144Z,18.20
2022-11-03T04:38:52.129Z,14.20
2022-11-03T04:39:52.151Z,13.30
2022-11-03T04:40:54.613Z,13.70
2022-11-03T04:41:52.084Z,12.80
2022-11-03T04:42:52.083Z,14.90
2022-11-03T04:43:52.087Z,15.00
2022-11-03T04:44:52.081Z,16.20
2022-11-03T04:45:52.034Z,12.40
2022-11-03T04:46:52.027Z,13.90
2022-11-03T04:47:52.007Z,13.80
2022-11-03T04:48:51.993Z,12.50
2022-11-03T04:49:51.998Z,16.00
2022-11-03T04:50:51.972Z,14.40
2022-11-03T04:51:51.991Z,18.80
2022-11-03T04:52:51.949Z,16.20
2022-11-03T04:53:51.933Z,14.20
2022-11-03T04:54:51.938Z,16.60
2022-11-03T04:55:51.927Z,16.50
2022-11-03T04:56:51.886Z,15.20
2022-11-03T04:57:51.878Z,17.10
2022-11-03T04:58:51.864Z,19.20
2022-11-03T04:59:51.846Z,16.00
2022-11-03T05:00:51.901Z,20.20
2022-11-03T05:01:52.101Z,19.90
2022-11-03T05:02:55.823Z,20.20
2022-11-03T05:03:51.810Z,19.70
2022-11-03T05:04:51.818Z,18.20
2022-11-03T05:05:51.787Z,21.10
2022-11-03T05:06:51.817Z,20.30
2022-11-03T05:07:51.743Z,21.10
2022-11-03T05:08:51.728Z,17.00
2022-11-03T05:09:51.750Z,18.20
2022-11-03T05:10:51.703Z,17.10
2022-11-03T05:11:51.682Z,18.70
2022-11-03T05:12:51.716Z,21.60
2022-11-03T05:13:51.689Z,20.40
2022-11-03T05:14:56.965Z,20.50
2022-11-03T05:15:51.664Z,21.20
2022-11-03T05:16:51.620Z,24.70
2022-11-03T05:17:51.600Z,25.80
2022-11-03T05:18:51.606Z,22.30
2022-11-03T05:19:51.604Z,23.90
2022-11-03T05:20:51.600Z,20.90
2022-11-03T05:21:51.564Z,17.10
2022-11-03T05:22:51.574Z,18.50
2022-11-03T05:23:51.525Z,21.30
2022-11-03T05:24:51.513Z,18.10
2022-11-03T05:25:51.525Z,16.90
2022-11-03T05:26:51.483Z,16.70
2022-11-03T05:27:51.495Z,18.10
2022-11-03T05:28:51.465Z,16.00
2022-11-03T05:29:53.962Z,19.70
2022-11-03T05:30:51.464Z,18.20
2022-11-03T05:31:51.434Z,18.70
2022-11-03T05:32:51.403Z,19.80
2022-11-03T05:33:51.422Z,22.60
2022-11-03T05:34:51.414Z,26.60
2022-11-03T05:35:51.382Z,25.80
2022-11-03T05:36:51.358Z,27.10
2022-11-03T05:37:51.344Z,31.20
2022-11-03T05:38:51.327Z,132.20
2022-11-03T05:39:51.343Z,32.40
2022-11-03T05:40:51.295Z,25.00
2022-11-03T05:41:51.319Z,32.30
2022-11-03T05:42:51.287Z,49.70
2022-11-03T05:43:51.265Z,41.70
2022-11-03T05:44:51.280Z,40.90
2022-11-03T05:45:51.333Z,40.90
2022-11-03T05:46:51.227Z,35.00
2022-11-03T05:47:51.231Z,35.90
2022-11-03T05:48:51.215Z,36.80
2022-11-03T05:49:51.236Z,28.40
2022-11-03T05:50:51.166Z,26.80
2022-11-03T05:51:51.154Z,24.30
2022-11-03T05:52:51.167Z,28.00
2022-11-03T05:53:51.131Z,25.20
2022-11-03T05:54:51.138Z,23.60
2022-11-03T05:55:51.103Z,21.20
2022-11-03T05:56:51.113Z,21.20
2022-11-03T05:57:51.072Z,21.10
2022-11-03T05:58:51.075Z,23.60
2022-11-03T05:59:51.067Z,28.30
2022-11-03T06:00:51.059Z,26.90
2022-11-03T06:01:51.196Z,27.90
2022-11-03T06:02:51.088Z,21.30
2022-11-03T06:03:50.997Z,18.70
2022-11-03T06:04:50.983Z,22.50
2022-11-03T06:05:51.012Z,19.70
2022-11-03T06:06:50.957Z,17.20
2022-11-03T06:07:50.961Z,17.80
2022-11-03T06:08:50.932Z,18.30
2022-11-03T06:09:50.910Z,20.70
2022-11-03T06:10:50.913Z,21.00
2022-11-03T06:11:50.884Z,17.80
2022-11-03T06:12:50.903Z,18.00
2022-11-03T06:13:50.850Z,19.10
2022-11-03T06:14:50.871Z,24.00
2022-11-03T06:15:50.825Z,18.00
2022-11-03T06:16:50.824Z,20.10
2022-11-03T06:17:50.807Z,17.30
2022-11-03T06:18:50.797Z,17.00
2022-11-03T06:19:50.849Z,17.40
2022-11-03T06:20:50.767Z,19.50
2022-11-03T06:21:50.758Z,20.90
2022-11-03T06:22:50.739Z,16.60
2022-11-03T06:23:50.716Z,21.70
2022-11-03T06:24:50.739Z,18.20
2022-11-03T06:25:50.695Z,16.60
2022-11-03T06:26:50.727Z,21.80
2022-11-03T06:27:50.674Z,18.70
2022-11-03T06:28:50.666Z,22.20
2022-11-03T06:29:51.305Z,18.30
2022-11-03T06:30:52.028Z,20.20
2022-11-03T06:31:50.613Z,16.20
2022-11-03T06:32:50.621Z,18.00
2022-11-03T06:33:50.589Z,17.50
2022-11-03T06:34:50.616Z,16.70
2022-11-03T06:35:50.576Z,19.70
2022-11-03T06:36:50.557Z,14.10
2022-11-03T06:37:50.555Z,17.10
2022-11-03T06:38:50.534Z,15.70
2022-11-03T06:39:50.541Z,17.20
2022-11-03T06:40:50.573Z,18.10
2022-11-03T06:41:50.482Z,16.90
2022-11-03T06:42:50.502Z,19.50
2022-11-03T06:43:50.470Z,17.20
2022-11-03T06:44:50.456Z,21.30
2022-11-03T06:45:50.478Z,21.90
2022-11-03T06:46:50.420Z,18.20
2022-11-03T06:47:50.417Z,27.00
2022-11-03T06:48:50.469Z,23.60
2022-11-03T06:49:50.374Z,18.70
2022-11-03T06:50:50.398Z,16.60
2022-11-03T06:51:50.352Z,16.40
2022-11-03T06:52:50.358Z,15.60
2022-11-03T06:53:50.318Z,15.70
2022-11-03T06:54:50.323Z,16.20
2022-11-03T06:55:50.319Z,15.80
2022-11-03T06:56:50.309Z,15.60
2022-11-03T06:57:50.280Z,14.60
2022-11-03T06:58:50.261Z,12.60
2022-11-03T06:59:57.002Z,11.90
2022-11-03T07:00:51.648Z,11.20
2022-11-03T07:01:50.369Z,9.70
2022-11-03T07:02:50.214Z,11.10
2022-11-03T07:03:50.199Z,10.10
2022-11-03T07:04:50.191Z,10.20
2022-11-03T07:05:50.234Z,9.00
2022-11-03T07:06:53.182Z,11.00
2022-11-03T07:07:50.139Z,10.20
2022-11-03T07:08:50.172Z,11.60
2022-11-03T07:09:50.120Z,9.60
2022-11-03T07:10:50.112Z,10.60
2022-11-03T07:11:50.077Z,62.50
2022-11-03T07:12:50.070Z,12.10
2022-11-03T07:13:50.081Z,9.10
2022-11-03T07:14:50.042Z,21.70
2022-11-03T07:15:50.047Z,12.20
2022-11-03T07:16:50.121Z,46.20
2022-11-03T07:17:50.003Z,11.70
2022-11-03T07:18:50.029Z,11.30
2022-11-03T07:19:49.976Z,14.20
2022-11-03T07:20:49.982Z,10.90
2022-11-03T07:21:49.997Z,12.70
2022-11-03T07:22:49.938Z,10.30
2022-11-03T07:23:49.935Z,11.20
2022-11-03T07:24:49.910Z,11.20
2022-11-03T07:25:49.899Z,9.20
2022-11-03T07:26:49.903Z,11.10
2022-11-03T07:27:49.874Z,10.20
2022-11-03T07:28:49.858Z,8.80
2022-11-03T07:29:49.864Z,9.90
2022-11-03T07:30:49.834Z,11.10
2022-11-03T07:31:49.847Z,26.60
2022-11-03T07:32:49.813Z,12.70
2022-11-03T07:33:49.786Z,14.40
2022-11-03T07:34:49.803Z,9.10
2022-11-03T07:36:54.399Z,8.90
2022-11-03T07:37:49.744Z,8.40
2022-11-03T07:38:49.752Z,10.10
2022-11-03T07:39:49.731Z,7.60
2022-11-03T07:40:49.705Z,7.40
2022-11-03T07:41:49.677Z,5.80
2022-11-03T07:42:49.716Z,7.00
2022-11-03T07:43:49.668Z,6.40
2022-11-03T07:44:49.764Z,6.10
2022-11-03T07:45:49.621Z,7.80
2022-11-03T07:46:49.659Z,7.70
2022-11-03T07:47:49.630Z,7.10
2022-11-03T07:48:49.590Z,8.10
2022-11-03T07:49:49.597Z,7.90
2022-11-03T07:50:49.559Z,7.80
2022-11-03T07:51:49.877Z,6.80
2022-11-03T07:52:49.535Z,6.30
2022-11-03T07:53:49.512Z,6.90
2022-11-03T07:54:49.548Z,7.40
2022-11-03T07:55:49.546Z,6.20
2022-11-03T07:56:49.484Z,6.10
2022-11-03T07:57:49.462Z,8.10
2022-11-03T07:58:49.446Z,7.60
2022-11-03T07:59:49.473Z,8.20
2022-11-03T08:00:49.425Z,7.90
2022-11-03T08:01:49.588Z,10.10
2022-11-03T08:02:49.445Z,5.70
2022-11-03T08:03:49.373Z,8.30
2022-11-03T08:04:49.409Z,6.30
2022-11-03T08:05:49.377Z,6.60
2022-11-03T08:06:49.354Z,6.70
2022-11-03T08:07:49.374Z,4.90
2022-11-03T08:08:49.307Z,5.70
2022-11-03T08:09:49.337Z,6.90
2022-11-03T08:10:49.288Z,6.30
2022-11-03T08:11:49.446Z,5.40
2022-11-03T08:12:49.267Z,5.60
2022-11-03T08:13:49.236Z,5.90
2022-11-03T08:14:49.257Z,9.60
2022-11-03T08:15:49.212Z,5.20
2022-11-03T08:16:49.197Z,7.00
2022-11-03T08:17:53.522Z,7.80
2022-11-03T08:18:49.179Z,7.20
2022-11-03T08:19:49.202Z,5.70
2022-11-03T08:20:49.178Z,6.50
2022-11-03T08:21:49.170Z,6.90
2022-11-03T08:23:05.089Z,6.40
2022-11-03T08:23:49.117Z,6.50
2022-11-03T08:24:49.101Z,5.30
2022-11-03T08:25:49.098Z,7.10
2022-11-03T08:26:49.235Z,5.80
2022-11-03T08:27:49.082Z,6.40
2022-11-03T08:28:49.035Z,6.30
2022-11-03T08:29:49.038Z,5.20
2022-11-03T08:30:49.006Z,5.10
2022-11-03T08:31:48.989Z,5.90
2022-11-03T08:32:49.001Z,6.00
2022-11-03T08:33:48.980Z,4.70
2022-11-03T08:34:48.962Z,7.20
2022-11-03T08:35:48.982Z,8.80
2022-11-03T08:36:48.968Z,11.70
2022-11-03T08:37:48.916Z,7.50
2022-11-03T08:38:48.955Z,5.80
2022-11-03T08:39:48.919Z,4.80
2022-11-03T08:40:52.740Z,5.90
2022-11-03T08:41:48.871Z,5.90
2022-11-03T08:42:48.873Z,4.50
2022-11-03T08:43:48.895Z,4.20
2022-11-03T08:44:48.819Z,5.00
2022-11-03T08:45:48.830Z,5.00
2022-11-03T08:46:48.829Z,5.80
2022-11-03T08:47:48.777Z,4.50
2022-11-03T08:48:48.756Z,5.10
2022-11-03T08:49:48.796Z,5.00
2022-11-03T08:50:48.745Z,6.00
2022-11-03T08:51:48.733Z,4.50
2022-11-03T08:52:48.713Z,4.40
2022-11-03T08:53:48.704Z,4.80
2022-11-03T08:54:48.784Z,7.10
2022-11-03T08:55:48.682Z,5.50
2022-11-03T08:56:48.682Z,4.70
2022-11-03T08:57:48.654Z,4.70
2022-11-03T08:58:48.670Z,3.60
2022-11-03T08:59:48.620Z,6.30
2022-11-03T09:00:48.609Z,5.40
2022-11-03T09:01:48.705Z,4.10
2022-11-03T09:02:48.578Z,3.70
2022-11-03T09:03:48.647Z,4.20
2022-11-03T09:04:48.537Z,7.00
2022-11-03T09:05:48.556Z,5.20
2022-11-03T09:06:48.538Z,6.20
2022-11-03T09:10:48.476Z,3.50
2022-11-03T09:11:48.485Z,5.90
2022-11-03T09:12:48.447Z,3.60
2022-11-03T09:13:48.434Z,4.50
2022-11-03T09:14:48.438Z,4.60
2022-11-03T09:15:48.421Z,5.60
2022-11-03T09:16:48.424Z,5.60
2022-11-03T09:17:48.373Z,4.20
2022-11-03T09:18:48.376Z,6.10
2022-11-03T09:19:48.353Z,4.60
2022-11-03T09:20:48.340Z,5.70
2022-11-03T09:21:48.315Z,3.50
2022-11-03T09:22:48.305Z,5.00
2022-11-03T09:23:48.345Z,4.60
2022-11-03T09:24:48.286Z,5.20
2022-11-03T09:25:48.268Z,5.60
2022-11-03T09:26:48.243Z,4.60
2022-11-03T09:27:48.244Z,4.20
2022-11-03T09:28:48.273Z,4.40
2022-11-03T09:30:11.784Z,4.70
2022-11-03T09:30:48.224Z,5.10
2022-11-03T09:31:48.180Z,4.50
2022-11-03T09:32:48.235Z,4.70
2022-11-03T09:33:48.162Z,3.80
2022-11-03T09:34:48.249Z,6.90
2022-11-03T09:35:48.161Z,5.40
2022-11-03T09:36:53.110Z,4.00
2022-11-03T09:37:48.136Z,4.60
2022-11-03T09:38:48.108Z,3.70
2022-11-03T09:39:48.075Z,4.60
2022-11-03T09:41:58.398Z,6.00
2022-11-03T09:42:48.112Z,3.00
2022-11-03T09:43:48.021Z,7.50
2022-11-03T09:44:47.996Z,5.30
2022-11-03T09:45:47.992Z,4.10
2022-11-03T09:46:47.985Z,4.90
2022-11-03T09:47:48.027Z,4.00
2022-11-03T09:48:47.950Z,4.50
2022-11-03T09:49:47.939Z,5.00
2022-11-03T09:50:47.925Z,3.50
2022-11-03T09:51:47.914Z,4.10
2022-11-03T09:52:51.478Z,5.30
2022-11-03T09:53:47.895Z,3.40
2022-11-03T09:54:47.870Z,3.70
2022-11-03T09:55:47.892Z,3.50
2022-11-03T09:56:47.888Z,5.00
2022-11-03T09:57:47.847Z,4.80
2022-11-03T09:58:53.012Z,4.90
2022-11-03T09:59:47.853Z,4.60
2022-11-03T10:00:47.904Z,3.20
2022-11-03T10:01:47.933Z,5.90
2022-11-03T10:02:47.773Z,5.60
2022-11-03T10:03:47.757Z,5.50
2022-11-03T10:04:47.764Z,5.00
2022-11-03T10:05:47.749Z,5.30
2022-11-03T10:06:47.707Z,5.20
2022-11-03T10:07:47.784Z,3.60
2022-11-03T10:08:47.679Z,4.40
2022-11-03T10:09:47.792Z,6.50
2022-11-03T10:10:47.699Z,3.90
2022-11-03T10:11:47.648Z,3.30
2022-11-03T10:12:47.651Z,3.80
2022-11-03T10:13:47.660Z,4.10
2022-11-03T10:14:47.660Z,4.00
2022-11-03T10:15:47.590Z,5.80
2022-11-03T10:16:53.206Z,4.10
2022-11-03T10:17:47.573Z,4.80
2022-11-03T10:18:47.574Z,4.10
2022-11-03T10:19:47.529Z,4.30
2022-11-03T10:20:47.558Z,5.40
2022-11-03T10:21:47.513Z,5.70
2022-11-03T10:22:47.493Z,4.40
2022-11-03T10:23:47.522Z,3.80
2022-11-03T10:24:47.463Z,3.90
2022-11-03T10:25:47.464Z,4.40
2022-11-03T10:26:47.435Z,5.00
2022-11-03T10:27:47.462Z,4.20
2022-11-03T10:28:47.417Z,4.10
2022-11-03T10:29:53.387Z,5.40
2022-11-03T10:31:09.956Z,5.00
2022-11-03T10:31:47.399Z,5.00
2022-11-03T10:32:47.380Z,3.60
2022-11-03T10:33:47.375Z,4.10
2022-11-03T10:34:47.325Z,4.70
2022-11-03T10:35:47.333Z,3.90
2022-11-03T10:36:50.586Z,3.50
2022-11-03T10:37:47.307Z,4.00
2022-11-03T10:38:47.290Z,4.10
2022-11-03T10:39:47.262Z,3.40
2022-11-03T10:40:48.457Z,9.70
2022-11-03T10:41:47.358Z,5.20
2022-11-03T10:42:47.272Z,5.80
2022-11-03T10:43:47.219Z,3.90
2022-11-03T10:44:47.204Z,4.90
2022-11-03T10:45:47.189Z,3.30
2022-11-03T10:46:51.509Z,3.70
2022-11-03T10:47:47.161Z,5.10
2022-11-03T10:48:47.148Z,4.20
2022-11-03T10:49:47.138Z,3.30
2022-11-03T10:50:47.117Z,4.60
2022-11-03T10:51:47.153Z,3.20
2022-11-03T10:52:47.103Z,4.30
2022-11-03T10:53:47.096Z,3.20
2022-11-03T10:54:47.090Z,4.00
2022-11-03T10:55:47.057Z,4.60
2022-11-03T10:56:47.083Z,3.60
2022-11-03T10:57:51.976Z,3.90
2022-11-03T10:58:47.114Z,3.00
2022-11-03T10:59:46.997Z,4.90
2022-11-03T11:00:47.019Z,3.70
2022-11-03T11:01:47.277Z,5.30
2022-11-03T11:02:46.966Z,5.90
2022-11-03T11:03:47.003Z,4.30
2022-11-03T11:04:46.926Z,6.60
2022-11-03T11:05:46.920Z,4.30
2022-11-03T11:06:46.914Z,3.20
2022-11-03T11:07:47.048Z,4.50
2022-11-03T11:08:46.926Z,4.80
2022-11-03T11:09:46.869Z,4.40
2022-11-03T11:10:46.906Z,3.90
2022-11-03T11:11:46.835Z,5.40
2022-11-03T11:12:46.880Z,4.70
2022-11-03T11:13:46.889Z,5.10
2022-11-03T11:14:46.800Z,6.50
2022-11-03T11:15:46.860Z,7.10
2022-11-03T11:16:46.803Z,5.00
2022-11-03T11:17:46.795Z,4.80
2022-11-03T11:18:46.766Z,6.10
2022-11-03T11:19:46.759Z,4.60
2022-11-03T11:20:46.830Z,5.10
2022-11-03T11:21:46.723Z,4.90
2022-11-03T11:22:46.722Z,3.70
2022-11-03T11:23:46.701Z,5.30
2022-11-03T11:24:46.660Z,7.10
2022-11-03T11:25:46.668Z,4.50
2022-11-03T11:26:46.637Z,4.70
2022-11-03T11:27:46.659Z,4.20
2022-11-03T11:28:46.607Z,3.90
2022-11-03T11:29:46.599Z,4.60
2022-11-03T11:30:46.620Z,3.90
2022-11-03T11:31:46.598Z,4.20
2022-11-03T11:32:46.572Z,4.50
2022-11-03T11:33:46.549Z,4.00
2022-11-03T11:34:46.533Z,5.40
2022-11-03T11:35:46.553Z,5.50
2022-11-03T11:36:46.537Z,5.50
2022-11-03T11:37:46.558Z,4.30
2022-11-03T11:38:46.487Z,3.80
2022-11-03T11:39:46.470Z,6.10
2022-11-03T11:40:46.455Z,4.80
2022-11-03T11:41:46.467Z,5.40
2022-11-03T11:42:46.431Z,5.20
2022-11-03T11:43:46.420Z,3.90
2022-11-03T11:44:46.405Z,4.40
2022-11-03T11:45:46.548Z,5.90
2022-11-03T11:46:46.373Z,5.50
2022-11-03T11:47:46.408Z,4.50
2022-11-03T11:48:46.340Z,4.10
2022-11-03T11:49:46.367Z,7.10
2022-11-03T11:50:46.345Z,6.70
2022-11-03T11:51:46.346Z,4.50
2022-11-03T11:52:46.296Z,4.10
2022-11-03T11:53:50.951Z,5.60
2022-11-03T11:54:46.268Z,6.00
2022-11-03T11:55:46.286Z,4.40
2022-11-03T11:56:46.238Z,5.40
2022-11-03T11:57:46.243Z,6.50
2022-11-03T11:58:46.235Z,4.10
2022-11-03T11:59:46.201Z,3.90
2022-11-03T12:00:46.212Z,3.20
2022-11-03T12:01:46.211Z,4.50
2022-11-03T12:02:46.160Z,5.10
2022-11-03T12:03:46.199Z,7.20
2022-11-03T12:04:46.144Z,4.40
2022-11-03T12:05:46.143Z,5.30
2022-11-03T12:06:46.110Z,5.90
2022-11-03T12:07:46.091Z,5.10
2022-11-03T12:08:46.073Z,6.00
2022-11-03T12:09:46.068Z,5.50
2022-11-03T12:10:46.102Z,5.40
2022-11-03T12:11:47.032Z,6.80
2022-11-03T12:12:46.021Z,4.50
2022-11-03T12:13:46.013Z,3.90
2022-11-03T12:14:46.022Z,5.80
2022-11-03T12:15:46.013Z,5.30
2022-11-03T12:16:45.973Z,4.20
2022-11-03T12:17:45.981Z,3.80
2022-11-03T12:18:50.394Z,5.80
2022-11-03T12:19:45.975Z,5.90
2022-11-03T12:20:45.923Z,5.40
2022-11-03T12:21:45.907Z,4.80
2022-11-03T12:22:45.944Z,5.80
2022-11-03T12:23:45.872Z,5.80
2022-11-03T12:24:45.902Z,5.70
2022-11-03T12:25:45.864Z,5.30
2022-11-03T12:26:45.841Z,6.10
2022-11-03T12:27:45.829Z,4.50
2022-11-03T12:28:45.824Z,4.50
2022-11-03T12:29:45.842Z,5.40
2022-11-03T12:30:45.779Z,4.80
2022-11-03T12:31:45.811Z,6.10
2022-11-03T12:32:45.758Z,3.70
2022-11-03T12:33:45.744Z,5.40
2022-11-03T12:34:45.742Z,4.70
2022-11-03T12:35:45.734Z,4.90
2022-11-03T12:36:45.735Z,5.40
2022-11-03T12:37:45.696Z,5.90
2022-11-03T12:38:45.714Z,5.00
2022-11-03T12:39:45.676Z,5.30
2022-11-03T12:40:45.649Z,4.40
2022-11-03T12:41:45.668Z,4.50
2022-11-03T12:42:45.727Z,4.80
2022-11-03T12:43:45.769Z,5.20
2022-11-03T12:44:45.657Z,7.00
2022-11-03T12:45:45.594Z,4.80
2022-11-03T12:46:45.573Z,7.60
2022-11-03T12:47:45.571Z,15.00
2022-11-03T12:48:45.589Z,22.10
2022-11-03T12:49:45.539Z,5.70
2022-11-03T12:50:45.558Z,6.60
2022-11-03T12:51:45.508Z,5.70
2022-11-03T12:52:45.506Z,5.50
2022-11-03T12:53:45.485Z,6.90
2022-11-03T12:54:45.473Z,6.00
2022-11-03T12:55:45.490Z,5.30
2022-11-03T12:56:45.460Z,6.20
2022-11-03T12:57:45.449Z,6.00
2022-11-03T12:58:45.413Z,5.20
2022-11-03T12:59:45.396Z,4.40
2022-11-03T13:00:49.981Z,5.40
2022-11-03T13:01:45.511Z,7.70
2022-11-03T13:02:45.540Z,5.40
2022-11-03T13:03:45.381Z,6.70
2022-11-03T13:04:45.336Z,5.90
2022-11-03T13:05:45.319Z,4.70
2022-11-03T13:06:45.328Z,5.00
2022-11-03T13:07:45.291Z,5.30
2022-11-03T13:08:46.732Z,9.40
2022-11-03T13:09:45.279Z,7.00
2022-11-03T13:10:45.250Z,6.70